Terminal Aerodrome Forecast
Issued by NWS

Home | Current Version | Previous Version | Text Only | Print | Product List | Glossary On
Versions: 1 2 3 4 5 6 7 8 9 10 11 12 13 14 15 16 17 18
000
FTUS43 KDTX 240316 AAA
TAFDET
TAF AMD
KDET 240316Z 2403/2424 05010KT 6SM -SHRA BR SCT040 OVC070
      TEMPO 2403/2406 4SM -SHRA BR SCT030 OVC045
     FM240600 04006KT 3SM -SHRA BR BKN008 OVC018
     FM241200 11007KT 2SM -DZ BR BKN005 OVC012
     FM241600 16013KT P6SM BKN018 BKN025
     FM241900 17013G20KT P6SM BKN040=

USA.gov is the U.S. government's official web portal to all federal, state and local government web resources and services.